Time;durP1;ratioP1;P1;durP2;ratioP2;P2;SDS_P1;SDS_P2;PMS_P1;PMS_P2;Temp;Humidity;BMP_temperature;BMP_pressure;BME280_temperature;BME280_humidity;BME280_pressure;Samples;Min_cycle;Max_cycle;Signal;HPM_P1;HPM_P2
2022/11/09 00:01:19;;;;;;;;;;;;;;;18.48;nan;101048.44;5041249;28;19920;-34
2022/11/09 00:03:44;;;;;;;;;;;;;;;18.48;nan;101045.72;5039715;28;20008;-34
2022/11/09 00:06:10;;;;;;;;;;;;;;;18.47;nan;101052.25;5043264;28;20042;-34
2022/11/09 00:08:36;;;;;;;;;;;;;;;18.41;nan;101052.34;5046850;28;19923;-34
2022/11/09 00:11:03;;;;;;;;;;;;;;;18.34;nan;101054.63;5044001;28;20334;-34
2022/11/09 00:13:28;;;;;;;;;;;;;;;18.29;nan;101051.94;5043870;28;19923;-34
2022/11/09 00:15:57;;;;;;;;;;;;;;;18.22;nan;101050.72;5042359;28;20294;-34
2022/11/09 00:18:22;;;;;;;;;;;;;;;18.19;nan;101043.16;5043138;28;20525;-34
2022/11/09 00:20:47;;;;;;;;;;;;;;;18.19;nan;101043.16;5038883;28;19921;-34
2022/11/09 00:23:13;;;;;;;;;;;;;;;18.20;nan;101042.06;5040742;28;19924;-35
2022/11/09 00:25:38;;;;;;;;;;;;;;;18.22;nan;101023.59;5039429;28;19931;-34
2022/11/09 00:28:03;;;;;;;;;;;;;;;18.24;nan;101032.25;5043556;28;19944;-34
2022/11/09 00:30:29;;;;;;;;;;;;;;;18.28;nan;101034.06;5045450;28;19916;-34
2022/11/09 00:32:55;;;;;;;;;;;;;;;18.32;nan;101037.03;5038763;28;19917;-34
2022/11/09 00:35:20;;;;;;;;;;;;;;;18.34;nan;101045.69;5040710;28;19920;-35
2022/11/09 00:37:45;;;;;;;;;;;;;;;18.35;nan;101039.94;5041120;28;19930;-34
2022/11/09 00:40:11;;;;;;;;;;;;;;;18.38;nan;101038.56;5043856;28;19955;-34
2022/11/09 00:42:37;;;;;;;;;;;;;;;18.41;nan;101052.34;5045044;28;20014;-34
2022/11/09 00:45:03;;;;;;;;;;;;;;;18.37;nan;101056.75;5041510;28;19917;-34
2022/11/09 00:47:28;;;;;;;;;;;;;;;18.36;nan;101052.41;5042091;28;19917;-34
2022/11/09 00:49:54;;;;;;;;;;;;;;;18.35;nan;101053.50;5041160;28;19921;-35
2022/11/09 00:52:19;;;;;;;;;;;;;;;18.36;nan;101040.75;5040174;28;19921;-34
2022/11/09 00:54:44;;;;;;;;;;;;;;;18.32;nan;101039.75;5041186;28;20027;-34
2022/11/09 00:57:11;;;;;;;;;;;;;;;18.32;nan;101039.75;5040840;28;19917;-35
2022/11/09 00:59:36;;;;;;;;;;;;;;;18.30;nan;101037.28;5043217;28;19999;-34
2022/11/09 01:02:01;;;;;;;;;;;;;;;18.28;nan;101034.06;5041359;28;20007;-35
2022/11/09 01:04:27;;;;;;;;;;;;;;;18.30;nan;101037.28;5045118;28;20293;-34
2022/11/09 01:06:52;;;;;;;;;;;;;;;18.29;nan;101035.69;5043169;28;19916;-34
2022/11/09 01:09:17;;;;;;;;;;;;;;;18.31;nan;101038.94;5046907;28;20142;-35
2022/11/09 01:11:43;;;;;;;;;;;;;;;18.30;nan;101037.28;5042921;28;19923;-34
2022/11/09 01:14:08;;;;;;;;;;;;;;;18.29;nan;101030.25;5043075;28;20513;-34
2022/11/09 01:16:33;;;;;;;;;;;;;;;18.29;nan;101029.44;5044805;28;20032;-34
2022/11/09 01:18:59;;;;;;;;;;;;;;;18.29;nan;101034.88;5039659;28;19920;-34
2022/11/09 01:21:25;;;;;;;;;;;;;;;18.31;nan;101035.38;5040647;28;20019;-34
2022/11/09 01:23:50;;;;;;;;;;;;;;;18.32;nan;101031.59;5067801;22;19939;-33
2022/11/09 01:26:16;;;;;;;;;;;;;;;18.33;nan;101031.31;5046003;28;19924;-33
2022/11/09 01:28:41;;;;;;;;;;;;;;;18.35;nan;101031.81;5044352;28;20006;-33
2022/11/09 01:31:09;;;;;;;;;;;;;;;18.34;nan;101027.50;5041611;28;19971;-33
2022/11/09 01:33:35;;;;;;;;;;;;;;;18.34;nan;101022.06;5042953;28;20369;-33
2022/11/09 01:36:01;;;;;;;;;;;;;;;18.33;nan;101025.06;5038211;28;19971;-33
2022/11/09 01:38:26;;;;;;;;;;;;;;;18.35;nan;101025.59;5045582;28;19947;-33
2022/11/09 01:40:51;;;;;;;;;;;;;;;18.36;nan;101028.00;5038669;28;19924;-33
2022/11/09 01:43:19;;;;;;;;;;;;;;;18.37;nan;101021.47;5040801;28;19916;-33
2022/11/09 01:45:47;;;;;;;;;;;;;;;18.38;nan;101022.28;5041286;28;20364;-33
2022/11/09 01:48:18;;;;;;;;;;;;;;;18.38;nan;101031.22;5041549;28;20352;-33
2022/11/09 01:50:52;;;;;;;;;;;;;;;18.39;nan;101032.84;5040381;28;19920;-33
2022/11/09 01:53:19;;;;;;;;;;;;;;;18.45;nan;101024.63;5036964;28;20386;-33
2022/11/09 01:55:47;;;;;;;;;;;;;;;18.40;nan;101020.88;5043757;28;19920;-33
2022/11/09 01:58:36;;;;;;;;;;;;;;;18.39;nan;101021.97;5042181;28;20008;-33
2022/11/09 02:01:02;;;;;;;;;;;;;;;18.41;nan;101017.06;5036484;28;19974;-33
2022/11/09 02:03:33;;;;;;;;;;;;;;;18.45;nan;101020.00;5040747;28;19948;-33
2022/11/09 02:06:01;;;;;;;;;;;;;;;18.47;nan;101012.38;5043611;28;20333;-33
2022/11/09 02:08:26;;;;;;;;;;;;;;;18.42;nan;101001.59;5041266;28;19993;-33
2022/11/09 02:10:57;;;;;;;;;;;;;;;18.38;nan;101001.38;5041464;28;19920;-33
2022/11/09 02:13:24;;;;;;;;;;;;;;;18.35;nan;100996.56;5037339;28;20378;-33
2022/11/09 02:15:50;;;;;;;;;;;;;;;18.37;nan;100996.25;5041682;28;19924;-33
2022/11/09 02:18:16;;;;;;;;;;;;;;;18.37;nan;100994.34;5047111;28;19916;-33
2022/11/09 02:20:49;;;;;;;;;;;;;;;18.36;nan;100987.31;5043189;28;20035;-33
2022/11/09 02:23:14;;;;;;;;;;;;;;;18.35;nan;100991.13;5036581;28;19920;-33
2022/11/09 02:25:40;;;;;;;;;;;;;;;18.35;nan;100984.91;5041157;28;19924;-33
2022/11/09 02:28:06;;;;;;;;;;;;;;;18.36;nan;100986.50;5042049;28;20326;-33
2022/11/09 02:30:32;;;;;;;;;;;;;;;18.36;nan;100981.88;5044912;28;19916;-33
2022/11/09 02:32:57;;;;;;;;;;;;;;;18.38;nan;100981.59;5038482;28;19924;-33
2022/11/09 02:35:22;;;;;;;;;;;;;;;18.40;nan;100982.09;5038488;28;19921;-33
2022/11/09 02:37:48;;;;;;;;;;;;;;;18.37;nan;100991.63;5040152;28;20007;-33
2022/11/09 02:40:21;;;;;;;;;;;;;;;18.36;nan;100990.03;5039214;28;19966;-33
2022/11/09 02:42:46;;;;;;;;;;;;;;;18.35;nan;100993.84;5038609;28;19924;-33
2022/11/09 02:45:12;;;;;;;;;;;;;;;18.34;nan;100992.22;5041121;28;19932;-33
2022/11/09 02:47:37;;;;;;;;;;;;;;;18.32;nan;100989.00;5041531;28;20049;-33
2022/11/09 02:50:03;;;;;;;;;;;;;;;18.32;nan;100980.88;5043313;28;20024;-33
2022/11/09 02:52:28;;;;;;;;;;;;;;;18.32;nan;100980.88;5040634;28;19924;-34
2022/11/09 02:54:53;;;;;;;;;;;;;;;18.33;nan;100979.78;5037326;28;19920;-33
2022/11/09 02:57:19;;;;;;;;;;;;;;;18.31;nan;100979.25;5038002;28;20139;-33
2022/11/09 02:59:44;;;;;;;;;;;;;;;18.29;nan;100978.72;5036401;28;20009;-33
2022/11/09 03:02:10;;;;;;;;;;;;;;;18.27;nan;100983.63;5036508;28;19925;-33
2022/11/09 03:04:35;;;;;;;;;;;;;;;18.22;nan;100993.75;5038661;28;19960;-33
2022/11/09 03:07:00;;;;;;;;;;;;;;;18.19;nan;100997.06;5041824;28;20029;-33
2022/11/09 03:09:26;;;;;;;;;;;;;;;18.15;nan;100994.13;5040368;28;20500;-33
2022/11/09 03:11:51;;;;;;;;;;;;;;;18.10;nan;100992.28;5039463;28;20331;-33
2022/11/09 03:14:16;;;;;;;;;;;;;;;18.07;nan;100990.16;5038921;28;19927;-33
2022/11/09 03:16:42;;;;;;;;;;;;;;;18.05;nan;100994.25;5039962;28;19925;-33
2022/11/09 03:19:07;;;;;;;;;;;;;;;18.02;nan;100997.56;5041381;28;19932;-33
2022/11/09 03:21:33;;;;;;;;;;;;;;;18.02;nan;100992.13;5038749;28;19935;-33
2022/11/09 03:23:58;;;;;;;;;;;;;;;17.98;nan;100989.22;5037315;28;19917;-33
2022/11/09 03:26:23;;;;;;;;;;;;;;;17.94;nan;100996.28;5040209;28;19962;-33
2022/11/09 03:28:49;;;;;;;;;;;;;;;17.91;nan;100996.06;5039091;28;19929;-33
2022/11/09 03:31:14;;;;;;;;;;;;;;;17.90;nan;100999.88;5039707;28;19924;-33
2022/11/09 03:33:40;;;;;;;;;;;;;;;17.89;nan;100993.66;5040121;28;19925;-33
2022/11/09 03:36:05;;;;;;;;;;;;;;;17.89;nan;100992.84;5039263;28;19917;-33
2022/11/09 03:38:31;;;;;;;;;;;;;;;17.89;nan;100987.41;5040278;28;19917;-33
2022/11/09 03:40:58;;;;;;;;;;;;;;;17.88;nan;100993.94;5037799;28;19928;-33
2022/11/09 03:43:23;;;;;;;;;;;;;;;17.86;nan;100988.00;5038151;28;19916;-33
2022/11/09 03:45:49;;;;;;;;;;;;;;;17.84;nan;100992.91;5036613;28;20294;-33
2022/11/09 03:48:14;;;;;;;;;;;;;;;17.81;nan;100983.47;5040638;28;20305;-33
2022/11/09 03:50:39;;;;;;;;;;;;;;;17.78;nan;100987.56;5042208;28;19931;-33
2022/11/09 03:53:06;;;;;;;;;;;;;;;17.74;nan;100985.72;5034856;28;19986;-33
2022/11/09 03:55:31;;;;;;;;;;;;;;;17.72;nan;100980.56;5036901;28;19921;-33
2022/11/09 03:57:56;;;;;;;;;;;;;;;17.68;nan;100979.56;5042069;28;21301;-33
2022/11/09 04:00:22;;;;;;;;;;;;;;;17.67;nan;100974.41;5047818;28;19917;-33
2022/11/09 04:02:48;;;;;;;;;;;;;;;17.65;nan;100982.00;5043608;28;20441;-33
2022/11/09 04:05:14;;;;;;;;;;;;;;;17.67;nan;100980.63;5041202;28;21422;-33
2022/11/09 04:07:39;;;;;;;;;;;;;;;17.70;nan;100969.22;5045417;28;19920;-33
2022/11/09 04:10:05;;;;;;;;;;;;;;;17.71;nan;100973.53;5040641;28;20436;-33
2022/11/09 04:12:30;;;;;;;;;;;;;;;17.74;nan;100970.25;5043155;28;19959;-33
2022/11/09 04:14:56;;;;;;;;;;;;;;;17.76;nan;100959.94;5039410;28;20193;-33
2022/11/09 04:17:21;;;;;;;;;;;;;;;17.78;nan;100978.63;5047306;28;20330;-33
2022/11/09 04:19:46;;;;;;;;;;;;;;;17.81;nan;100991.59;5044390;28;19924;-33
2022/11/09 04:22:11;;;;;;;;;;;;;;;17.80;nan;100990.78;5044269;28;19927;-33
2022/11/09 04:24:37;;;;;;;;;;;;;;;17.79;nan;100978.34;5043029;28;19935;-33
2022/11/09 04:27:02;;;;;;;;;;;;;;;17.76;nan;100978.91;5039353;28;20072;-33
2022/11/09 04:29:28;;;;;;;;;;;;;;;17.76;nan;100978.91;5039538;28;19923;-33
2022/11/09 04:31:53;;;;;;;;;;;;;;;17.78;nan;100975.94;5042824;28;20016;-33
2022/11/09 04:34:18;;;;;;;;;;;;;;;17.79;nan;100978.34;5042098;28;19958;-33
2022/11/09 04:36:44;;;;;;;;;;;;;;;17.79;nan;100967.50;5040468;28;21056;-33
2022/11/09 04:39:09;;;;;;;;;;;;;;;17.80;nan;100977.25;5043414;28;19920;-33
2022/11/09 04:41:35;;;;;;;;;;;;;;;17.80;nan;100971.81;5042743;28;20008;-33
2022/11/09 04:44:00;;;;;;;;;;;;;;;17.83;nan;100972.34;5044865;28;19974;-33
2022/11/09 04:46:26;;;;;;;;;;;;;;;17.85;nan;100980.97;5043573;28;19960;-33
2022/11/09 04:48:51;;;;;;;;;;;;;;;17.84;nan;100973.94;5041482;28;20163;-33
2022/11/09 04:51:16;;;;;;;;;;;;;;;17.83;nan;100992.13;5041168;28;20378;-33
2022/11/09 04:53:42;;;;;;;;;;;;;;;17.83;nan;101005.66;5041770;28;20025;-33
2022/11/09 04:56:07;;;;;;;;;;;;;;;17.81;nan;101005.97;5046202;28;19979;-33
2022/11/09 04:58:33;;;;;;;;;;;;;;;17.80;nan;101001.63;5040244;28;19920;-33
2022/11/09 05:01:05;;;;;;;;;;;;;;;17.80;nan;101001.63;5038781;28;19921;-33
2022/11/09 05:03:30;;;;;;;;;;;;;;;17.83;nan;101002.94;5040918;28;19960;-33
2022/11/09 05:05:56;;;;;;;;;;;;;;;17.87;nan;100993.13;5041215;28;19956;-33
2022/11/09 05:08:21;;;;;;;;;;;;;;;17.90;nan;100997.16;5042608;28;20366;-33
2022/11/09 05:10:47;;;;;;;;;;;;;;;17.92;nan;100990.34;5040295;28;19939;-33
2022/11/09 05:13:12;;;;;;;;;;;;;;;17.93;nan;100988.44;5039925;28;20340;-33
2022/11/09 05:15:38;;;;;;;;;;;;;;;17.95;nan;100983.53;5040507;28;20329;-33
2022/11/09 05:18:03;;;;;;;;;;;;;;;17.95;nan;100980.81;5040532;28;20020;-33
2022/11/09 05:20:29;;;;;;;;;;;;;;;17.96;nan;100975.16;5039362;28;20211;-33
2022/11/09 05:25:39;;;;;;;;;;;;;;;18.00;nan;100972.66;5042011;28;20484;-33
2022/11/09 05:28:05;;;;;;;;;;;;;;;18.01;nan;100976.97;5042303;28;20015;-33
2022/11/09 05:30:30;;;;;;;;;;;;;;;18.03;nan;100980.19;5039796;28;19917;-33
2022/11/09 05:32:57;;;;;;;;;;;;;;;18.06;nan;100977.69;5037628;28;20216;-33
2022/11/09 05:35:22;;;;;;;;;;;;;;;18.09;nan;100973.59;5040220;28;19927;-33
2022/11/09 05:37:48;;;;;;;;;;;;;;;18.11;nan;100984.94;5038748;28;19946;-33
2022/11/09 05:40:14;;;;;;;;;;;;;;;18.12;nan;100981.94;5037861;28;20382;-33
2022/11/09 05:42:40;;;;;;;;;;;;;;;18.12;nan;100981.13;5036299;28;20045;-33
2022/11/09 05:45:06;;;;;;;;;;;;;;;18.10;nan;100983.34;5038597;28;20030;-33
2022/11/09 05:47:35;;;;;;;;;;;;;;;18.11;nan;100988.47;5041408;28;20051;-33
2022/11/09 05:50:00;;;;;;;;;;;;;;;18.16;nan;100992.22;5035565;28;19931;-33
2022/11/09 05:52:26;;;;;;;;;;;;;;;18.19;nan;101003.28;5043735;28;19917;-33
2022/11/09 05:54:51;;;;;;;;;;;;;;;18.19;nan;101002.47;5040907;28;19920;-33
2022/11/09 05:57:16;;;;;;;;;;;;;;;18.16;nan;101003.88;5038078;28;19931;-33
2022/11/09 05:59:42;;;;;;;;;;;;;;;18.15;nan;101007.69;5030678;28;20176;-33
2022/11/09 06:02:07;;;;;;;;;;;;;;;18.14;nan;101006.09;5038547;28;20424;-33
2022/11/09 06:04:32;;;;;;;;;;;;;;;18.15;nan;100999.56;5041031;28;19917;-33
2022/11/09 06:06:57;;;;;;;;;;;;;;;18.16;nan;100990.31;5038940;28;19917;-33
2022/11/09 06:09:23;;;;;;;;;;;;;;;18.19;nan;100986.22;5044936;28;19917;-33
2022/11/09 06:11:49;;;;;;;;;;;;;;;18.20;nan;100998.69;5035603;28;19918;-33
2022/11/09 06:14:14;;;;;;;;;;;;;;;18.20;nan;101009.53;5040834;28;20257;-33
2022/11/09 06:16:40;;;;;;;;;;;;;;;18.18;nan;101007.09;5041864;28;19948;-33
2022/11/09 06:19:05;;;;;;;;;;;;;;;18.17;nan;101010.91;5036378;28;19917;-33
2022/11/09 06:21:30;;;;;;;;;;;;;;;18.17;nan;101016.34;5042772;28;20458;-33
2022/11/09 06:23:56;;;;;;;;;;;;;;;18.21;nan;101022.78;5035699;28;20656;-33
2022/11/09 06:26:21;;;;;;;;;;;;;;;18.23;nan;101023.28;5038261;28;20055;-33
2022/11/09 06:28:46;;;;;;;;;;;;;;;18.24;nan;101016.78;5038218;28;19975;-34
2022/11/09 06:31:13;;;;;;;;;;;;;;;18.24;nan;101013.25;5039841;28;19916;-33
2022/11/09 06:33:38;;;;;;;;;;;;;;;18.23;nan;101015.16;5038729;28;19917;-33
2022/11/09 06:36:04;;;;;;;;;;;;;;;18.21;nan;101028.22;5035409;28;19917;-33
2022/11/09 06:38:29;;;;;;;;;;;;;;;18.17;nan;101023.66;5043399;28;19916;-33
2022/11/09 06:40:55;;;;;;;;;;;;;;;18.16;nan;101013.91;5040388;28;19968;-33
2022/11/09 06:43:21;;;;;;;;;;;;;;;18.16;nan;101014.72;5039487;28;19921;-33
2022/11/09 06:45:46;;;;;;;;;;;;;;;18.16;nan;101020.16;5039685;28;19972;-33
2022/11/09 06:48:12;;;;;;;;;;;;;;;18.12;nan;101019.91;5038405;28;19925;-33
2022/11/09 06:50:37;;;;;;;;;;;;;;;18.12;nan;101010.97;5034226;28;19917;-33
2022/11/09 06:53:04;;;;;;;;;;;;;;;18.12;nan;101011.78;5041244;28;19925;-33
2022/11/09 06:55:30;;;;;;;;;;;;;;;18.13;nan;101015.28;5036838;28;20359;-33
2022/11/09 06:57:55;;;;;;;;;;;;;;;18.12;nan;101017.19;5040157;28;19943;-33
2022/11/09 07:00:21;;;;;;;;;;;;;;;18.10;nan;101015.88;5037654;28;19917;-33
2022/11/09 07:02:46;;;;;;;;;;;;;;;18.07;nan;101016.47;5037000;28;19925;-33
2022/11/09 07:05:12;;;;;;;;;;;;;;;18.08;nan;101015.38;5039631;28;19916;-34
2022/11/09 07:07:37;;;;;;;;;;;;;;;18.08;nan;101012.66;5031980;28;19964;-34
2022/11/09 07:10:02;;;;;;;;;;;;;;;18.07;nan;101019.97;5037040;28;19921;-33
2022/11/09 07:12:28;;;;;;;;;;;;;;;18.06;nan;101025.69;5038444;28;19917;-33
2022/11/09 07:14:53;;;;;;;;;;;;;;;18.04;nan;101025.19;5039431;28;20392;-33
2022/11/09 07:17:19;;;;;;;;;;;;;;;18.01;nan;101020.34;5047297;28;19927;-33
2022/11/09 07:19:44;;;;;;;;;;;;;;;18.02;nan;101021.97;5038047;28;19978;-33
2022/11/09 07:22:10;;;;;;;;;;;;;;;18.05;nan;101030.31;5044754;28;19968;-33
2022/11/09 07:24:35;;;;;;;;;;;;;;;18.08;nan;101028.91;5042243;28;20015;-33
2022/11/09 07:27:00;;;;;;;;;;;;;;;18.12;nan;101024.53;5041325;28;19924;-33
2022/11/09 07:29:26;;;;;;;;;;;;;;;18.15;nan;101034.81;5037956;28;19917;-33
2022/11/09 07:31:51;;;;;;;;;;;;;;;18.19;nan;101029.59;5038908;28;19916;-33
2022/11/09 07:34:16;;;;;;;;;;;;;;;18.18;nan;101045.06;5042306;28;19928;-33
2022/11/09 07:36:41;;;;;;;;;;;;;;;18.23;nan;101036.06;5047620;28;19917;-33
2022/11/09 07:39:07;;;;;;;;;;;;;;;18.26;nan;101032.75;5042208;28;19932;-33
2022/11/09 07:41:32;;;;;;;;;;;;;;;18.28;nan;101035.97;5036851;28;19928;-33
2022/11/09 07:43:58;;;;;;;;;;;;;;;18.29;nan;101041.09;5042836;28;20067;-34
2022/11/09 07:46:23;;;;;;;;;;;;;;;18.27;nan;101042.50;5040713;28;19952;-33
2022/11/09 07:48:48;;;;;;;;;;;;;;;18.27;nan;101043.31;5041971;28;19917;-33
2022/11/09 07:51:14;;;;;;;;;;;;;;;18.32;nan;101042.44;5041622;28;21224;-33
2022/11/09 07:53:39;;;;;;;;;;;;;;;18.32;nan;101037.84;5047890;28;20389;-33
2022/11/09 07:56:05;;;;;;;;;;;;;;;18.31;nan;101048.94;5041767;28;20279;-33
2022/11/09 07:58:31;;;;;;;;;;;;;;;18.26;nan;101035.47;5043186;28;19917;-33
2022/11/09 08:00:56;;;;;;;;;;;;;;;18.28;nan;101030.56;5038076;28;19921;-34
2022/11/09 08:03:22;;;;;;;;;;;;;;;18.32;nan;101039.75;5040695;28;19968;-33
2022/11/09 08:05:48;;;;;;;;;;;;;;;18.34;nan;101037.53;5044817;28;19942;-34
2022/11/09 08:08:15;;;;;;;;;;;;;;;18.32;nan;101035.13;5046688;28;20512;-33
2022/11/09 08:10:40;;;;;;;;;;;;;;;18.33;nan;101036.72;5043204;28;20470;-33
2022/11/09 08:13:10;;;;;;;;;;;;;;;18.38;nan;101035.84;5039513;28;20035;-33
2022/11/09 08:15:37;;;;;;;;;;;;;;;18.41;nan;101036.06;5044092;28;19924;-34
2022/11/09 08:18:07;;;;;;;;;;;;;;;18.43;nan;101033.84;5040213;28;20268;-33
2022/11/09 08:20:33;;;;;;;;;;;;;;;18.41;nan;101038.78;5047092;28;19925;-33
2022/11/09 08:22:58;;;;;;;;;;;;;;;18.40;nan;101028.22;5041049;28;19923;-34
2022/11/09 08:25:23;;;;;;;;;;;;;;;18.39;nan;101032.03;5043985;28;19917;-33
2022/11/09 08:27:49;;;;;;;;;;;;;;;18.35;nan;101033.72;5042795;28;19920;-33
2022/11/09 08:30:16;;;;;;;;;;;;;;;18.36;nan;101040.75;5044597;28;19966;-33
2022/11/09 08:32:42;;;;;;;;;;;;;;;18.39;nan;101045.59;5040119;28;19971;-33
2022/11/09 08:35:09;;;;;;;;;;;;;;;18.40;nan;101050.72;5035327;28;19923;-33
2022/11/09 08:37:34;;;;;;;;;;;;;;;18.43;nan;101044.72;5039749;28;20349;-33
2022/11/09 08:39:59;;;;;;;;;;;;;;;18.46;nan;101039.78;5043724;28;19921;-33
2022/11/09 08:42:25;;;;;;;;;;;;;;;18.51;nan;101037.03;5044269;28;20286;-34
2022/11/09 08:44:50;;;;;;;;;;;;;;;18.55;nan;101033.41;5039127;28;19917;-33
2022/11/09 08:47:15;;;;;;;;;;;;;;;18.63;nan;101040.91;5044198;28;19925;-33
2022/11/09 08:49:42;;;;;;;;;;;;;;;18.74;nan;101036.16;5041231;28;19919;-34
2022/11/09 08:52:08;;;;;;;;;;;;;;;18.82;nan;101040.91;5036640;28;19924;-33
2022/11/09 08:54:34;;;;;;;;;;;;;;;18.82;nan;101029.22;5046018;28;19916;-33
2022/11/09 08:57:00;;;;;;;;;;;;;;;18.87;nan;101026.47;5041349;28;20371;-34
2022/11/09 08:59:25;;;;;;;;;;;;;;;18.89;nan;101046.78;5043666;28;20027;-33
2022/11/09 09:01:50;;;;;;;;;;;;;;;18.86;nan;101060.94;5038617;28;19921;-33
2022/11/09 09:04:15;;;;;;;;;;;;;;;18.80;nan;101056.66;5040984;28;19925;-33
2022/11/09 09:06:41;;;;;;;;;;;;;;;18.76;nan;101055.66;5043583;28;19995;-33
2022/11/09 09:09:06;;;;;;;;;;;;;;;18.71;nan;101055.75;5040824;28;19925;-33
2022/11/09 09:11:31;;;;;;;;;;;;;;;18.64;nan;101052.56;5042189;28;20330;-33
2022/11/09 09:13:57;;;;;;;;;;;;;;;18.56;nan;101064.88;5037862;28;19960;-33
2022/11/09 09:16:22;;;;;;;;;;;;;;;18.46;nan;101061.50;5042807;28;20366;-33
2022/11/09 09:18:47;;;;;;;;;;;;;;;18.42;nan;101067.50;5042386;28;19913;-33
2022/11/09 09:21:13;;;;;;;;;;;;;;;18.38;nan;101071.91;5042778;28;19920;-33
2022/11/09 09:23:38;;;;;;;;;;;;;;;18.40;nan;101085.19;5038978;28;20127;-34
2022/11/09 09:26:03;;;;;;;;;;;;;;;18.39;nan;101078.16;5042580;28;19960;-33
2022/11/09 09:28:29;;;;;;;;;;;;;;;18.37;nan;101080.34;5038445;28;19917;-33
2022/11/09 09:30:56;;;;;;;;;;;;;;;18.36;nan;101078.75;5037839;28;20367;-33
2022/11/09 09:33:21;;;;;;;;;;;;;;;18.34;nan;101087.16;5035015;28;19959;-33
2022/11/09 09:35:46;;;;;;;;;;;;;;;18.35;nan;101096.13;5033327;28;20359;-33
2022/11/09 09:38:12;;;;;;;;;;;;;;;18.36;nan;101095.81;5045826;28;19966;-33
2022/11/09 09:40:41;;;;;;;;;;;;;;;18.35;nan;101096.91;5040486;28;19916;-33
2022/11/09 09:43:11;;;;;;;;;;;;;;;18.39;nan;101089.00;5043810;28;20312;-33
2022/11/09 09:45:43;;;;;;;;;;;;;;;18.36;nan;101103.97;5038477;28;19924;-33
2022/11/09 09:48:12;;;;;;;;;;;;;;;18.36;nan;101127.56;5041515;28;19925;-33
2022/11/09 09:50:51;;;;;;;;;;;;;;;18.33;nan;101112.69;5036058;28;19917;-33
2022/11/09 09:53:34;;;;;;;;;;;;;;;18.30;nan;101105.09;5033716;28;20291;-33
2022/11/09 09:56:05;;;;;;;;;;;;;;;18.33;nan;101109.16;5044247;28;20358;-33
2022/11/09 09:58:31;;;;;;;;;;;;;;;18.31;nan;101103.19;5035754;28;19927;-33
2022/11/09 10:01:11;;;;;;;;;;;;;;;18.25;nan;101098.94;5034373;28;19936;-33
2022/11/09 10:03:36;;;;;;;;;;;;;;;18.23;nan;101106.56;5040180;28;20442;-33
2022/11/09 10:06:11;;;;;;;;;;;;;;;18.25;nan;101110.59;5038324;28;20003;-33
2022/11/09 10:08:51;;;;;;;;;;;;;;;18.26;nan;101105.97;5038511;28;19924;-33
2022/11/09 10:11:37;;;;;;;;;;;;;;;18.29;nan;101084.50;5037817;28;19936;-33
2022/11/09 10:14:20;;;;;;;;;;;;;;;18.32;nan;101089.38;5004910;28;19917;-33
2022/11/09 10:17:01;;;;;;;;;;;;;;;18.35;nan;101088.78;5038192;28;19925;-33
2022/11/09 10:19:47;;;;;;;;;;;;;;;18.36;nan;101106.66;5045362;28;19917;-33
2022/11/09 10:25:14;;;;;;;;;;;;;;;18.45;48.62;101098.66;4977972;27;19938;-33
2022/11/09 10:27:44;;;;;;;;;;;;;;;18.47;48.62;101110.03;4998844;28;19918;-33
2022/11/09 10:30:14;;;;;;;;;;;;;;;18.49;48.89;101102.44;4967341;28;19924;-33
2022/11/09 10:32:40;;;;;;;;;;;;;;;18.50;48.60;101103.25;4985138;28;19917;-33
2022/11/09 10:35:20;;;;;;;;;;;;;;;18.52;48.59;101099.13;4966587;28;19961;-33
2022/11/09 10:37:47;;;;;;;;;;;;;;;18.58;48.55;101105.28;4983640;22;19907;-36
2022/11/09 10:40:14;;;;;;;;;;;;;;;18.63;48.58;101102.53;5009172;28;19964;-35
2022/11/09 10:42:42;;;;;;;;;;;;;;;18.64;48.50;101102.22;5005647;28;19918;-35
2022/11/09 10:45:17;;;;;;;;;;;;;;;18.57;48.80;101100.97;5007759;28;19929;-35
2022/11/09 10:47:49;;;;;;;;;;;;;;;18.62;48.56;101096.25;5013936;28;19917;-34
2022/11/09 10:50:30;;;;;;;;;;;;;;;18.64;48.67;101098.72;5010074;28;19956;-34
2022/11/09 10:53:10;;;;;;;;;;;;;;;18.74;48.66;101106.72;5008022;28;19925;-34
2022/11/09 10:55:35;;;;;;;;;;;;;;;18.71;48.68;101101.88;5009870;28;20290;-34
2022/11/09 10:58:11;;;;;;;;;;;;;;;18.69;49.03;101102.19;5010213;28;19948;-34
2022/11/09 11:00:53;;;;;;;;;;;;;;;18.78;48.57;101096.88;5007103;28;19925;-34
2022/11/09 11:03:18;;;;;;;;;;;;;;;18.77;48.75;101098.00;5008871;28;19930;-34
2022/11/09 11:05:55;;;;;;;;;;;;;;;18.79;48.61;101092.25;5009121;28;19924;-34
2022/11/09 11:08:25;;;;;;;;;;;;;;;18.83;48.71;101082.41;5011937;28;19921;-34
2022/11/09 11:10:50;;;;;;;;;;;;;;;18.89;48.40;101086.69;5006850;28;19917;-34
2022/11/09 11:13:20;;;;;;;;;;;;;;;18.85;48.62;101078.34;5004114;28;19971;-34
2022/11/09 11:15:46;;;;;;;;;;;;;;;18.80;49.24;101074.88;5005292;28;20072;-35
2022/11/09 11:18:19;;;;;;;;;;;;;;;18.85;48.96;101072.91;5006316;28;19929;-35
2022/11/09 11:20:45;;;;;;;;;;;;;;;18.89;48.70;101090.22;5008297;28;19928;-35
2022/11/09 11:23:13;;;;;;;;;;;;;;;18.88;49.06;101085.06;5002921;28;19925;-35
2022/11/09 11:25:56;;;;;;;;;;;;;;;18.94;49.05;101100.97;5004240;28;20302;-34
2022/11/09 11:28:30;;;;;;;;;;;;;;;19.09;49.15;101091.00;5007431;28;19921;-35
2022/11/09 11:30:56;;;;;;;;;;;;;;;19.25;49.14;101089.63;5005340;28;19928;-35
2022/11/09 11:33:21;;;;;;;;;;;;;;;19.41;48.61;101071.16;5003400;28;20330;-35
2022/11/09 11:36:05;;;;;;;;;;;;;;;19.58;48.19;101083.09;4998506;28;19917;-35
2022/11/09 11:38:34;;;;;;;;;;;;;;;19.69;47.96;101082.88;4994581;28;20183;-35
2022/11/09 11:41:00;;;;;;;;;;;;;;;19.79;47.93;101082.72;4991858;28;20195;-35
2022/11/09 11:43:29;;;;;;;;;;;;;;;19.87;48.18;101073.84;4990138;28;19922;-35
2022/11/09 11:46:00;;;;;;;;;;;;;;;20.11;47.71;101071.72;4990951;28;20520;-35
2022/11/09 11:48:29;;;;;;;;;;;;;;;20.30;47.22;101059.91;4991718;28;19968;-35
2022/11/09 11:51:09;;;;;;;;;;;;;;;20.43;46.98;101049.00;4992076;28;19933;-35
2022/11/09 11:53:58;;;;;;;;;;;;;;;20.56;47.01;101046.56;4993063;28;19932;-35
2022/11/09 11:56:29;;;;;;;;;;;;;;;20.66;46.92;101060.75;4996680;28;19922;-35
2022/11/09 11:59:17;;;;;;;;;;;;;;;20.81;46.55;101063.09;4993482;28;19928;-35
2022/11/09 12:01:49;;;;;;;;;;;;;;;20.71;46.19;101066.06;4997212;28;19921;-35
2022/11/09 12:04:24;;;;;;;;;;;;;;;20.61;46.41;101057.31;4994975;28;19926;-35
2022/11/09 12:06:53;;;;;;;;;;;;;;;20.60;46.77;101047.53;4993572;28;20423;-35
2022/11/09 12:09:37;;;;;;;;;;;;;;;20.67;46.58;101050.66;4995918;28;19925;-35
2022/11/09 12:12:11;;;;;;;;;;;;;;;20.67;46.35;101047.94;4990108;28;19926;-35
2022/11/09 12:14:55;;;;;;;;;;;;;;;20.73;46.34;101042.06;4991510;28;20180;-35
2022/11/09 12:17:26;;;;;;;;;;;;;;;20.74;46.25;101049.09;4990992;28;19922;-35
2022/11/09 12:20:12;;;;;;;;;;;;;;;20.74;46.38;101057.28;4988942;28;19928;-35
2022/11/09 12:22:37;;;;;;;;;;;;;;;20.88;46.00;101049.06;4994737;28;19924;-35
2022/11/09 12:25:18;;;;;;;;;;;;;;;21.05;46.02;101046.44;4991928;28;20150;-35
2022/11/09 12:27:50;;;;;;;;;;;;;;;21.32;45.82;101047.41;4992479;28;20180;-35
2022/11/09 12:30:16;;;;;;;;;;;;;;;21.57;45.31;101043.22;4990437;28;19929;-35
2022/11/09 12:32:51;;;;;;;;;;;;;;;21.74;44.59;101051.47;4993795;28;19926;-35
2022/11/09 12:35:22;;;;;;;;;;;;;;;21.79;44.34;101045.88;4995079;28;20025;-35
2022/11/09 12:38:07;;;;;;;;;;;;;;;21.79;44.33;101048.59;4991033;28;19958;-35
2022/11/09 12:40:38;;;;;;;;;;;;;;;21.82;44.62;101050.69;4990846;28;19921;-35
2022/11/09 12:43:14;;;;;;;;;;;;;;;21.91;44.67;101037.88;4991291;28;19918;-36
2022/11/09 12:45:40;;;;;;;;;;;;;;;22.10;44.08;101034.09;4992642;28;19925;-35
2022/11/09 12:48:10;;;;;;;;;;;;;;;22.04;44.08;101030.69;4988307;28;19980;-35
2022/11/09 12:50:36;;;;;;;;;;;;;;;22.06;44.05;101028.47;4992699;28;19917;-36
2022/11/09 12:53:03;;;;;;;;;;;;;;;21.94;44.00;101029.06;4991964;28;19917;-35
2022/11/09 12:55:38;;;;;;;;;;;;;;;21.83;44.31;101030.47;4991382;28;20292;-35
2022/11/09 12:58:03;;;;;;;;;;;;;;;21.78;44.36;101025.16;4994046;28;20363;-35
2022/11/09 13:00:32;;;;;;;;;;;;;;;21.68;44.44;101017.25;4995129;28;19921;-35